sensor_id;sensor_type;location;lat;lon;timestamp;pressure;altitude;pressure_sealevel;temperature;humidity
53689;BME280;39583;54.682;30.662;2023-11-21T00:00:08;99328.31;;;-5.06;69.97
53689;BME280;39583;54.682;30.662;2023-11-21T00:02:40;99341.88;;;-5.01;70.06
53689;BME280;39583;54.682;30.662;2023-11-21T00:05:09;99346.28;;;-5.01;69.98
53689;BME280;39583;54.682;30.662;2023-11-21T00:07:37;99350.72;;;-5.02;70.05
53689;BME280;39583;54.682;30.662;2023-11-21T00:10:06;99341.88;;;-5.01;70.21
53689;BME280;39583;54.682;30.662;2023-11-21T00:12:36;99346.28;;;-5.01;70.17
53689;BME280;39583;54.682;30.662;2023-11-21T00:15:04;99353.34;;;-5.02;70.37
53689;BME280;39583;54.682;30.662;2023-11-21T00:17:41;99354.19;;;-5.01;70.25
53689;BME280;39583;54.682;30.662;2023-11-21T00:20:10;99348.09;;;-5.02;70.25
53689;BME280;39583;54.682;30.662;2023-11-21T00:22:41;99323.78;;;-5.15;70.42
53689;BME280;39583;54.682;30.662;2023-11-21T00:25:09;99347.50;;;-5.06;70.29
53689;BME280;39583;54.682;30.662;2023-11-21T00:27:38;99351.09;;;-5.07;70.47
53689;BME280;39583;54.682;30.662;2023-11-21T00:30:06;99329.50;;;-5.21;70.29
53689;BME280;39583;54.682;30.662;2023-11-21T00:32:38;99354.69;;;-5.08;70.47
53689;BME280;39583;54.682;30.662;2023-11-21T00:35:06;99354.56;;;-5.06;70.81
53689;BME280;39583;54.682;30.662;2023-11-21T00:37:33;99365.75;;;-5.04;70.65
53689;BME280;39583;54.682;30.662;2023-11-21T00:40:01;99369.81;;;-5.00;70.55
53689;BME280;39583;54.682;30.662;2023-11-21T00:42:34;99364.28;;;-4.97;70.67
53689;BME280;39583;54.682;30.662;2023-11-21T00:45:01;99366.09;;;-4.97;70.70
53689;BME280;39583;54.682;30.662;2023-11-21T00:47:31;99372.31;;;-4.98;70.84
53689;BME280;39583;54.682;30.662;2023-11-21T00:49:59;99369.41;;;-4.95;70.72
53689;BME280;39583;54.682;30.662;2023-11-21T00:52:26;99365.00;;;-4.95;70.61
53689;BME280;39583;54.682;30.662;2023-11-21T00:54:54;99362.38;;;-4.95;70.78
53689;BME280;39583;54.682;30.662;2023-11-21T00:57:22;99358.81;;;-4.94;70.88
53689;BME280;39583;54.682;30.662;2023-11-21T00:59:49;99366.69;;;-4.94;70.86
53689;BME280;39583;54.682;30.662;2023-11-21T01:02:17;99362.38;;;-4.95;70.84
53689;BME280;39583;54.682;30.662;2023-11-21T01:04:45;99359.88;;;-4.96;71.16
53689;BME280;39583;54.682;30.662;2023-11-21T01:07:12;99356.41;;;-4.97;71.04
53689;BME280;39583;54.682;30.662;2023-11-21T01:09:40;99359.31;;;-5.00;71.12
53689;BME280;39583;54.682;30.662;2023-11-21T01:12:08;99357.06;;;-5.05;71.27
53689;BME280;39583;54.682;30.662;2023-11-21T01:14:35;99360.88;;;-5.09;71.27
53689;BME280;39583;54.682;30.662;2023-11-21T01:17:04;99359.31;;;-5.11;71.43
53689;BME280;39583;54.682;30.662;2023-11-21T01:19:32;99371.75;;;-5.13;71.44
53689;BME280;39583;54.682;30.662;2023-11-21T01:22:00;99363.16;;;-5.15;71.56
53689;BME280;39583;54.682;30.662;2023-11-21T01:24:28;99366.75;;;-5.16;71.75
53689;BME280;39583;54.682;30.662;2023-11-21T01:26:55;99372.00;;;-5.16;71.65
53689;BME280;39583;54.682;30.662;2023-11-21T01:29:23;99366.88;;;-5.18;71.70
53689;BME280;39583;54.682;30.662;2023-11-21T01:31:51;99367.00;;;-5.19;71.68
53689;BME280;39583;54.682;30.662;2023-11-21T01:34:19;99369.84;;;-5.22;71.69
53689;BME280;39583;54.682;30.662;2023-11-21T01:36:46;99364.72;;;-5.24;72.07
53689;BME280;39583;54.682;30.662;2023-11-21T01:39:14;99371.75;;;-5.24;71.91
53689;BME280;39583;54.682;30.662;2023-11-21T01:41:43;99375.22;;;-5.24;71.98
53689;BME280;39583;54.682;30.662;2023-11-21T01:44:13;99371.75;;;-5.24;72.25
53689;BME280;39583;54.682;30.662;2023-11-21T01:46:41;99372.38;;;-5.21;72.03
53689;BME280;39583;54.682;30.662;2023-11-21T01:49:10;99374.25;;;-5.23;71.89
53689;BME280;39583;54.682;30.662;2023-11-21T01:51:42;99380.34;;;-5.22;72.02
53689;BME280;39583;54.682;30.662;2023-11-21T01:54:10;99376.06;;;-5.23;71.80
53689;BME280;39583;54.682;30.662;2023-11-21T01:56:47;99380.34;;;-5.22;72.14
53689;BME280;39583;54.682;30.662;2023-11-21T01:59:18;99383.09;;;-5.24;72.07
53689;BME280;39583;54.682;30.662;2023-11-21T02:01:48;99387.16;;;-5.20;72.12
53689;BME280;39583;54.682;30.662;2023-11-21T02:04:18;99391.44;;;-5.19;71.89
53689;BME280;39583;54.682;30.662;2023-11-21T02:06:47;99396.56;;;-5.17;71.91
53689;BME280;39583;54.682;30.662;2023-11-21T02:09:15;99398.00;;;-5.13;72.10
53689;BME280;39583;54.682;30.662;2023-11-21T02:11:43;99399.41;;;-5.09;71.83
53689;BME280;39583;54.682;30.662;2023-11-21T02:14:11;99400.97;;;-5.07;72.10
53689;BME280;39583;54.682;30.662;2023-11-21T02:16:41;99400.16;;;-5.07;71.92
53689;BME280;39583;54.682;30.662;2023-11-21T02:19:14;99406.09;;;-5.05;72.02
53689;BME280;39583;54.682;30.662;2023-11-21T02:21:46;99404.56;;;-5.08;71.58
53689;BME280;39583;54.682;30.662;2023-11-21T02:24:15;99401.31;;;-5.11;71.69
53689;BME280;39583;54.682;30.662;2023-11-21T02:26:45;99412.66;;;-5.11;71.89
53689;BME280;39583;54.682;30.662;2023-11-21T02:29:13;99373.44;;;-5.35;71.94
53689;BME280;39583;54.682;30.662;2023-11-21T02:31:41;99417.06;;;-5.11;71.75
53689;BME280;39583;54.682;30.662;2023-11-21T02:34:16;99418.63;;;-5.09;71.75
53689;BME280;39583;54.682;30.662;2023-11-21T02:36:44;99421.16;;;-5.07;72.07
53689;BME280;39583;54.682;30.662;2023-11-21T02:39:12;99420.19;;;-5.06;72.06
53689;BME280;39583;54.682;30.662;2023-11-21T02:41:40;99410.75;;;-5.09;72.22
53689;BME280;39583;54.682;30.662;2023-11-21T02:44:09;99406.56;;;-5.11;71.93
53689;BME280;39583;54.682;30.662;2023-11-21T02:46:37;99419.44;;;-5.08;71.91
53689;BME280;39583;54.682;30.662;2023-11-21T02:49:06;99424.69;;;-5.08;72.23
53689;BME280;39583;54.682;30.662;2023-11-21T02:51:34;99434.28;;;-5.07;72.34
53689;BME280;39583;54.682;30.662;2023-11-21T02:54:01;99436.91;;;-5.07;72.61
53689;BME280;39583;54.682;30.662;2023-11-21T02:56:34;99399.47;;;-5.31;72.48
53689;BME280;39583;54.682;30.662;2023-11-21T02:59:02;99402.09;;;-5.31;72.51
53689;BME280;39583;54.682;30.662;2023-11-21T03:01:30;99438.78;;;-5.09;72.74
53689;BME280;39583;54.682;30.662;2023-11-21T03:03:58;99439.63;;;-5.09;72.65
53689;BME280;39583;54.682;30.662;2023-11-21T03:06:26;99442.50;;;-5.12;72.51
53689;BME280;39583;54.682;30.662;2023-11-21T03:08:53;99441.91;;;-5.15;72.90
53689;BME280;39583;54.682;30.662;2023-11-21T03:11:21;99447.28;;;-5.17;72.71
53689;BME280;39583;54.682;30.662;2023-11-21T03:13:49;99451.69;;;-5.17;72.70
53689;BME280;39583;54.682;30.662;2023-11-21T03:16:18;99449.06;;;-5.17;72.93
53689;BME280;39583;54.682;30.662;2023-11-21T03:18:46;99442.16;;;-5.18;72.86
53689;BME280;39583;54.682;30.662;2023-11-21T03:21:14;99450.03;;;-5.18;72.85
53689;BME280;39583;54.682;30.662;2023-11-21T03:23:42;99444.91;;;-5.20;72.86
53689;BME280;39583;54.682;30.662;2023-11-21T03:26:12;99456.13;;;-5.18;72.91
53689;BME280;39583;54.682;30.662;2023-11-21T03:28:40;99449.06;;;-5.17;72.80
53689;BME280;39583;54.682;30.662;2023-11-21T03:31:08;99444.78;;;-5.18;72.87
53689;BME280;39583;54.682;30.662;2023-11-21T03:33:36;99452.78;;;-5.20;72.95
53689;BME280;39583;54.682;30.662;2023-11-21T03:36:04;99455.75;;;-5.24;72.97
53689;BME280;39583;54.682;30.662;2023-11-21T03:38:31;99452.53;;;-5.28;73.05
53689;BME280;39583;54.682;30.662;2023-11-21T03:40:59;99460.78;;;-5.32;73.10
53689;BME280;39583;54.682;30.662;2023-11-21T03:43:29;99451.81;;;-5.41;73.38
53689;BME280;39583;54.682;30.662;2023-11-21T03:45:56;99461.13;;;-5.37;73.19
53689;BME280;39583;54.682;30.662;2023-11-21T03:48:24;99456.09;;;-5.40;73.21
53689;BME280;39583;54.682;30.662;2023-11-21T03:50:51;99458.63;;;-5.39;73.21
53689;BME280;39583;54.682;30.662;2023-11-21T03:53:19;99463.97;;;-5.40;73.39
53689;BME280;39583;54.682;30.662;2023-11-21T03:55:47;99466.47;;;-5.39;73.41
53689;BME280;39583;54.682;30.662;2023-11-21T03:58:14;99457.66;;;-5.38;73.26
53689;BME280;39583;54.682;30.662;2023-11-21T04:00:42;99466.38;;;-5.37;73.30
53689;BME280;39583;54.682;30.662;2023-11-21T04:03:09;99470.78;;;-5.38;73.25
53689;BME280;39583;54.682;30.662;2023-11-21T04:05:37;99476.84;;;-5.37;73.36
53689;BME280;39583;54.682;30.662;2023-11-21T04:08:05;99473.41;;;-5.38;73.25
53689;BME280;39583;54.682;30.662;2023-11-21T04:10:32;99470.06;;;-5.40;73.15
53689;BME280;39583;54.682;30.662;2023-11-21T04:13:00;99465.91;;;-5.42;73.02
53689;BME280;39583;54.682;30.662;2023-11-21T04:15:28;99484.63;;;-5.47;73.00
53689;BME280;39583;54.682;30.662;2023-11-21T04:17:55;99481.25;;;-5.49;73.23
53689;BME280;39583;54.682;30.662;2023-11-21T04:20:24;99480.44;;;-5.49;73.23
53689;BME280;39583;54.682;30.662;2023-11-21T04:22:52;99489.13;;;-5.49;73.25
53689;BME280;39583;54.682;30.662;2023-11-21T04:25:19;99493.53;;;-5.49;73.02
53689;BME280;39583;54.682;30.662;2023-11-21T04:27:47;99479.00;;;-5.53;73.23
53689;BME280;39583;54.682;30.662;2023-11-21T04:30:15;99491.75;;;-5.49;73.23
53689;BME280;39583;54.682;30.662;2023-11-21T04:32:43;99495.34;;;-5.50;73.29
53689;BME280;39583;54.682;30.662;2023-11-21T04:35:11;99504.03;;;-5.49;73.24
53689;BME280;39583;54.682;30.662;2023-11-21T04:37:38;99508.31;;;-5.48;73.42
53689;BME280;39583;54.682;30.662;2023-11-21T04:40:07;99500.69;;;-5.51;73.60
53689;BME280;39583;54.682;30.662;2023-11-21T04:42:36;99501.28;;;-5.48;73.60
53689;BME280;39583;54.682;30.662;2023-11-21T04:45:05;99503.00;;;-5.47;73.41
53689;BME280;39583;54.682;30.662;2023-11-21T04:47:37;99502.25;;;-5.49;73.45
53689;BME280;39583;54.682;30.662;2023-11-21T04:50:05;99507.03;;;-5.54;73.46
53689;BME280;39583;54.682;30.662;2023-11-21T04:52:33;99504.41;;;-5.54;73.62
53689;BME280;39583;54.682;30.662;2023-11-21T04:55:01;99507.84;;;-5.53;73.73
53689;BME280;39583;54.682;30.662;2023-11-21T04:57:30;99514.88;;;-5.54;73.79
53689;BME280;39583;54.682;30.662;2023-11-21T04:59:58;99513.47;;;-5.58;73.57
53689;BME280;39583;54.682;30.662;2023-11-21T05:02:25;99515.13;;;-5.57;73.61
53689;BME280;39583;54.682;30.662;2023-11-21T05:05:02;99517.97;;;-5.60;73.68
53689;BME280;39583;54.682;30.662;2023-11-21T05:07:30;99518.72;;;-5.58;73.77
53689;BME280;39583;54.682;30.662;2023-11-21T05:09:58;99516.22;;;-5.59;73.86
53689;BME280;39583;54.682;30.662;2023-11-21T05:12:26;99519.03;;;-5.63;73.69
53689;BME280;39583;54.682;30.662;2023-11-21T05:14:54;99508.44;;;-5.72;73.95
53689;BME280;39583;54.682;30.662;2023-11-21T05:17:22;99516.28;;;-5.72;73.89
53689;BME280;39583;54.682;30.662;2023-11-21T05:19:50;99521.16;;;-5.79;74.20
53689;BME280;39583;54.682;30.662;2023-11-21T05:22:17;99525.06;;;-5.84;74.13
53689;BME280;39583;54.682;30.662;2023-11-21T05:24:47;99515.53;;;-5.85;74.07
53689;BME280;39583;54.682;30.662;2023-11-21T05:27:14;99525.78;;;-5.82;74.24
53689;BME280;39583;54.682;30.662;2023-11-21T05:29:43;99490.59;;;-6.02;74.23
53689;BME280;39583;54.682;30.662;2023-11-21T05:32:11;99532.47;;;-5.78;74.19
53689;BME280;39583;54.682;30.662;2023-11-21T05:34:38;99531.53;;;-5.77;74.31
53689;BME280;39583;54.682;30.662;2023-11-21T05:37:06;99532.13;;;-5.74;74.15
53689;BME280;39583;54.682;30.662;2023-11-21T05:39:34;99535.38;;;-5.70;74.22
53689;BME280;39583;54.682;30.662;2023-11-21T05:42:02;99539.66;;;-5.69;74.14
53689;BME280;39583;54.682;30.662;2023-11-21T05:44:31;99539.44;;;-5.66;74.01
53689;BME280;39583;54.682;30.662;2023-11-21T05:46:58;99546.22;;;-5.64;74.06
53689;BME280;39583;54.682;30.662;2023-11-21T05:49:26;99548.59;;;-5.60;73.75
53689;BME280;39583;54.682;30.662;2023-11-21T05:51:54;99550.19;;;-5.58;73.81
53689;BME280;39583;54.682;30.662;2023-11-21T05:54:22;99555.31;;;-5.56;73.67
53689;BME280;39583;54.682;30.662;2023-11-21T05:56:51;99561.41;;;-5.56;73.60
53689;BME280;39583;54.682;30.662;2023-11-21T05:59:18;99563.06;;;-5.55;73.67
53689;BME280;39583;54.682;30.662;2023-11-21T06:01:49;99560.31;;;-5.53;73.61
53689;BME280;39583;54.682;30.662;2023-11-21T06:04:17;99566.41;;;-5.53;73.50
53689;BME280;39583;54.682;30.662;2023-11-21T06:06:46;99574.88;;;-5.49;73.30
53689;BME280;39583;54.682;30.662;2023-11-21T06:09:13;99572.03;;;-5.46;73.44
53689;BME280;39583;54.682;30.662;2023-11-21T06:11:41;99574.44;;;-5.43;73.40
53689;BME280;39583;54.682;30.662;2023-11-21T06:14:08;99583.00;;;-5.41;73.32
53689;BME280;39583;54.682;30.662;2023-11-21T06:16:37;99579.19;;;-5.37;73.56
53689;BME280;39583;54.682;30.662;2023-11-21T06:19:04;99585.06;;;-5.33;73.49
53689;BME280;39583;54.682;30.662;2023-11-21T06:21:32;99591.03;;;-5.31;73.23
53689;BME280;39583;54.682;30.662;2023-11-21T06:24:01;99581.50;;;-5.32;73.43
53689;BME280;39583;54.682;30.662;2023-11-21T06:26:29;99597.47;;;-5.24;73.43
53689;BME280;39583;54.682;30.662;2023-11-21T06:28:57;99592.84;;;-5.21;73.36
53689;BME280;39583;54.682;30.662;2023-11-21T06:31:26;99597.03;;;-5.18;73.18
53689;BME280;39583;54.682;30.662;2023-11-21T06:33:53;99599.41;;;-5.15;73.11
53689;BME280;39583;54.682;30.662;2023-11-21T06:36:21;99600.97;;;-5.13;73.16
53689;BME280;39583;54.682;30.662;2023-11-21T06:38:51;99597.13;;;-5.09;73.41
53689;BME280;39583;54.682;30.662;2023-11-21T06:41:18;99591.69;;;-5.06;73.09
53689;BME280;39583;54.682;30.662;2023-11-21T06:43:46;99601.81;;;-5.01;73.34
53689;BME280;39583;54.682;30.662;2023-11-21T06:46:13;99592.97;;;-5.00;73.42
53689;BME280;39583;54.682;30.662;2023-11-21T06:48:42;99586.06;;;-4.90;73.56
53689;BME280;39583;54.682;30.662;2023-11-21T06:51:10;99590.25;;;-4.76;73.50
53689;BME280;39583;54.682;30.662;2023-11-21T06:53:38;99597.06;;;-4.73;73.21
53689;BME280;39583;54.682;30.662;2023-11-21T06:56:15;99605.19;;;-4.65;73.20
53689;BME280;39583;54.682;30.662;2023-11-21T06:58:44;99609.00;;;-4.58;73.29
53689;BME280;39583;54.682;30.662;2023-11-21T07:01:13;99611.41;;;-4.55;73.27
53689;BME280;39583;54.682;30.662;2023-11-21T07:03:41;99613.53;;;-4.49;73.44
53689;BME280;39583;54.682;30.662;2023-11-21T07:06:10;99599.69;;;-4.40;73.21
53689;BME280;39583;54.682;30.662;2023-11-21T07:08:38;99605.84;;;-4.30;73.08
53689;BME280;39583;54.682;30.662;2023-11-21T07:11:06;99599.03;;;-4.21;73.17
53689;BME280;39583;54.682;30.662;2023-11-21T07:13:34;99598.31;;;-4.12;73.04
53689;BME280;39583;54.682;30.662;2023-11-21T07:16:01;99598.41;;;-4.02;72.76
53689;BME280;39583;54.682;30.662;2023-11-21T07:18:30;99608.16;;;-3.93;72.53
53689;BME280;39583;54.682;30.662;2023-11-21T07:20:58;99610.06;;;-3.84;72.15
53689;BME280;39583;54.682;30.662;2023-11-21T07:23:26;99610.50;;;-3.79;72.04
53689;BME280;39583;54.682;30.662;2023-11-21T07:25:53;99611.72;;;-3.83;72.14
53689;BME280;39583;54.682;30.662;2023-11-21T07:28:21;99617.13;;;-3.84;72.21
53689;BME280;39583;54.682;30.662;2023-11-21T07:30:48;99619.75;;;-3.84;72.32
53689;BME280;39583;54.682;30.662;2023-11-21T07:33:16;99626.28;;;-3.79;72.44
53689;BME280;39583;54.682;30.662;2023-11-21T07:35:44;99627.47;;;-3.72;72.13
53689;BME280;39583;54.682;30.662;2023-11-21T07:38:12;99617.78;;;-3.71;72.20
53689;BME280;39583;54.682;30.662;2023-11-21T07:40:40;99626.97;;;-3.66;71.87
53689;BME280;39583;54.682;30.662;2023-11-21T07:43:08;99623.50;;;-3.66;71.73
53689;BME280;39583;54.682;30.662;2023-11-21T07:45:36;99625.63;;;-3.60;71.80
53689;BME280;39583;54.682;30.662;2023-11-21T07:48:04;99625.97;;;-3.53;71.27
53689;BME280;39583;54.682;30.662;2023-11-21T07:50:32;99629.78;;;-3.46;71.34
53689;BME280;39583;54.682;30.662;2023-11-21T07:53:00;99620.66;;;-3.42;71.00
53689;BME280;39583;54.682;30.662;2023-11-21T07:55:38;99623.75;;;-3.37;70.66
53689;BME280;39583;54.682;30.662;2023-11-21T07:58:13;99620.38;;;-3.39;70.34
53689;BME280;39583;54.682;30.662;2023-11-21T08:00:40;99622.78;;;-3.36;70.77
53689;BME280;39583;54.682;30.662;2023-11-21T08:03:08;99602.44;;;-3.34;70.64
53689;BME280;39583;54.682;30.662;2023-11-21T08:05:36;99614.84;;;-3.25;70.16
53689;BME280;39583;54.682;30.662;2023-11-21T08:08:05;99590.84;;;-3.43;70.60
53689;BME280;39583;54.682;30.662;2023-11-21T08:10:33;99621.78;;;-3.24;70.20
53689;BME280;39583;54.682;30.662;2023-11-21T08:13:01;99619.25;;;-3.25;70.36
53689;BME280;39583;54.682;30.662;2023-11-21T08:15:30;99594.59;;;-3.45;69.80
53689;BME280;39583;54.682;30.662;2023-11-21T08:17:59;99616.88;;;-3.29;70.19
53689;BME280;39583;54.682;30.662;2023-11-21T08:20:26;99621.91;;;-3.25;69.90
53689;BME280;39583;54.682;30.662;2023-11-21T08:22:55;99617.00;;;-3.30;69.54
53689;BME280;39583;54.682;30.662;2023-11-21T08:25:24;99617.88;;;-3.41;69.33
53689;BME280;39583;54.682;30.662;2023-11-21T08:27:53;99620.50;;;-3.41;69.47
53689;BME280;39583;54.682;30.662;2023-11-21T08:30:21;99630.47;;;-3.44;69.28
53689;BME280;39583;54.682;30.662;2023-11-21T08:32:51;99624.38;;;-3.45;69.22
53689;BME280;39583;54.682;30.662;2023-11-21T08:35:21;99618.28;;;-3.45;68.99
53689;BME280;39583;54.682;30.662;2023-11-21T08:37:51;99624.31;;;-3.34;69.14
53689;BME280;39583;54.682;30.662;2023-11-21T08:40:20;99619.97;;;-3.23;68.66
53689;BME280;39583;54.682;30.662;2023-11-21T08:42:48;99618.16;;;-3.23;68.55
53689;BME280;39583;54.682;30.662;2023-11-21T08:45:16;99622.22;;;-3.19;68.53
53689;BME280;39583;54.682;30.662;2023-11-21T08:47:45;99614.66;;;-3.12;68.37
53689;BME280;39583;54.682;30.662;2023-11-21T08:50:14;99585.75;;;-3.23;68.09
53689;BME280;39583;54.682;30.662;2023-11-21T08:52:43;99616.19;;;-3.10;68.27
53689;BME280;39583;54.682;30.662;2023-11-21T08:55:11;99610.00;;;-2.99;68.11
53689;BME280;39583;54.682;30.662;2023-11-21T08:57:46;99605.88;;;-2.92;67.72
53689;BME280;39583;54.682;30.662;2023-11-21T09:00:19;99610.31;;;-2.92;67.36
53689;BME280;39583;54.682;30.662;2023-11-21T09:02:53;99606.56;;;-2.90;67.06
53689;BME280;39583;54.682;30.662;2023-11-21T09:05:21;99610.72;;;-2.97;66.36
53689;BME280;39583;54.682;30.662;2023-11-21T09:07:49;99618.41;;;-3.05;66.36
53689;BME280;39583;54.682;30.662;2023-11-21T09:10:19;99593.03;;;-3.06;66.10
53689;BME280;39583;54.682;30.662;2023-11-21T09:12:48;99605.88;;;-2.92;65.82
53689;BME280;39583;54.682;30.662;2023-11-21T09:15:17;99601.97;;;-2.98;66.10
53689;BME280;39583;54.682;30.662;2023-11-21T09:17:45;99615.47;;;-3.12;64.99
53689;BME280;39583;54.682;30.662;2023-11-21T09:20:16;99614.31;;;-3.19;64.82
53689;BME280;39583;54.682;30.662;2023-11-21T09:22:45;99618.34;;;-3.15;64.67
53689;BME280;39583;54.682;30.662;2023-11-21T09:25:13;99615.22;;;-3.09;64.48
53689;BME280;39583;54.682;30.662;2023-11-21T09:27:42;99621.31;;;-3.08;64.45
53689;BME280;39583;54.682;30.662;2023-11-21T09:30:12;99623.41;;;-3.02;64.44
53689;BME280;39583;54.682;30.662;2023-11-21T09:32:41;99629.72;;;-2.93;64.00
53689;BME280;39583;54.682;30.662;2023-11-21T09:35:13;99632.66;;;-2.87;64.15
53689;BME280;39583;54.682;30.662;2023-11-21T09:37:43;99637.69;;;-2.84;64.01
53689;BME280;39583;54.682;30.662;2023-11-21T09:40:12;99639.47;;;-2.84;63.59
53689;BME280;39583;54.682;30.662;2023-11-21T09:45:24;99622.00;;;-2.85;63.56
53689;BME280;39583;54.682;30.662;2023-11-21T09:47:56;99628.72;;;-2.72;63.25
53689;BME280;39583;54.682;30.662;2023-11-21T09:50:25;99628.59;;;-2.70;62.82
53689;BME280;39583;54.682;30.662;2023-11-21T09:55:47;99641.69;;;-2.59;62.50
53689;BME280;39583;54.682;30.662;2023-11-21T09:58:15;99652.44;;;-2.72;62.09
53689;BME280;39583;54.682;30.662;2023-11-21T10:00:47;99649.00;;;-2.93;61.80
53689;BME280;39583;54.682;30.662;2023-11-21T10:03:15;99642.38;;;-3.08;61.63
53689;BME280;39583;54.682;30.662;2023-11-21T10:05:45;99628.94;;;-3.26;61.65
53689;BME280;39583;54.682;30.662;2023-11-21T10:08:17;99629.91;;;-3.27;61.61
53689;BME280;39583;54.682;30.662;2023-11-21T10:10:49;99636.91;;;-3.16;61.38
53689;BME280;39583;54.682;30.662;2023-11-21T10:13:18;99646.47;;;-3.15;61.47
53689;BME280;39583;54.682;30.662;2023-11-21T10:15:51;99619.06;;;-3.34;61.10
53689;BME280;39583;54.682;30.662;2023-11-21T10:18:20;99647.13;;;-3.23;60.97
53689;BME280;39583;54.682;30.662;2023-11-21T10:20:50;99642.00;;;-3.24;61.17
53689;BME280;39583;54.682;30.662;2023-11-21T10:23:22;99647.84;;;-3.21;60.31
53689;BME280;39583;54.682;30.662;2023-11-21T10:25:51;99642.56;;;-3.21;59.86
53689;BME280;39583;54.682;30.662;2023-11-21T10:28:21;99641.75;;;-3.21;59.17
53689;BME280;39583;54.682;30.662;2023-11-21T10:30:51;99620.50;;;-3.41;58.79
53689;BME280;39583;54.682;30.662;2023-11-21T10:33:28;99641.16;;;-3.25;58.36
53689;BME280;39583;54.682;30.662;2023-11-21T10:35:58;99645.47;;;-3.24;58.53
53689;BME280;39583;54.682;30.662;2023-11-21T10:38:28;99643.66;;;-3.23;58.44
53689;BME280;39583;54.682;30.662;2023-11-21T10:41:02;99645.91;;;-3.19;58.92
53689;BME280;39583;54.682;30.662;2023-11-21T10:43:32;99642.88;;;-3.14;58.78
53689;BME280;39583;54.682;30.662;2023-11-21T10:46:02;99637.47;;;-3.13;58.98
53689;BME280;39583;54.682;30.662;2023-11-21T10:48:31;99644.31;;;-3.10;58.82
53689;BME280;39583;54.682;30.662;2023-11-21T10:51:06;99645.66;;;-3.16;58.72
53689;BME280;39583;54.682;30.662;2023-11-21T10:53:38;99648.88;;;-3.12;58.93
53689;BME280;39583;54.682;30.662;2023-11-21T10:56:08;99642.88;;;-3.14;58.77
53689;BME280;39583;54.682;30.662;2023-11-21T10:58:44;99641.22;;;-3.15;58.82
53689;BME280;39583;54.682;30.662;2023-11-21T11:01:12;99641.81;;;-3.12;59.11
53689;BME280;39583;54.682;30.662;2023-11-21T11:03:42;99634.53;;;-3.19;58.66
53689;BME280;39583;54.682;30.662;2023-11-21T11:06:16;99606.91;;;-3.46;59.48
53689;BME280;39583;54.682;30.662;2023-11-21T11:08:44;99639.38;;;-3.24;59.39
53689;BME280;39583;54.682;30.662;2023-11-21T11:11:12;99643.06;;;-3.27;59.12
53689;BME280;39583;54.682;30.662;2023-11-21T11:13:43;99647.09;;;-3.44;59.47
53689;BME280;39583;54.682;30.662;2023-11-21T11:16:13;99641.19;;;-3.57;59.74
53689;BME280;39583;54.682;30.662;2023-11-21T11:18:45;99648.94;;;-3.56;59.62
53689;BME280;39583;54.682;30.662;2023-11-21T11:21:31;99638.28;;;-3.54;60.08
53689;BME280;39583;54.682;30.662;2023-11-21T11:26:50;99648.41;;;-3.38;60.15
53689;BME280;39583;54.682;30.662;2023-11-21T11:29:47;99653.19;;;-3.43;59.42
53689;BME280;39583;54.682;30.662;2023-11-21T11:38:09;99641.38;;;-3.49;60.00
53689;BME280;39583;54.682;30.662;2023-11-21T11:40:47;99648.91;;;-3.44;59.63
53689;BME280;39583;54.682;30.662;2023-11-21T11:43:26;99638.28;;;-3.54;59.46
53689;BME280;39583;54.682;30.662;2023-11-21T11:45:58;99647.97;;;-3.54;59.81
53689;BME280;39583;54.682;30.662;2023-11-21T11:48:37;99641.25;;;-3.47;60.09
53689;BME280;39583;54.682;30.662;2023-11-21T11:51:11;99636.56;;;-3.44;60.24
53689;BME280;39583;54.682;30.662;2023-11-21T11:53:42;99636.66;;;-3.34;59.92
53689;BME280;39583;54.682;30.662;2023-11-21T11:56:27;99644.72;;;-3.26;59.84
53689;BME280;39583;54.682;30.662;2023-11-21T11:58:57;99640.34;;;-3.25;59.71
53689;BME280;39583;54.682;30.662;2023-11-21T12:01:26;99650.97;;;-3.27;60.00
53689;BME280;39583;54.682;30.662;2023-11-21T12:06:47;99644.16;;;-3.30;60.16
53689;BME280;39583;54.682;30.662;2023-11-21T12:09:22;99650.66;;;-3.34;59.80
53689;BME280;39583;54.682;30.662;2023-11-21T12:11:51;99650.56;;;-3.43;60.20
53689;BME280;39583;54.682;30.662;2023-11-21T12:14:20;99652.88;;;-3.50;59.93
53689;BME280;39583;54.682;30.662;2023-11-21T12:16:47;99651.44;;;-3.54;60.37
53689;BME280;39583;54.682;30.662;2023-11-21T12:19:15;99650.47;;;-3.53;60.02
53689;BME280;39583;54.682;30.662;2023-11-21T12:21:43;99644.78;;;-3.58;60.30
53689;BME280;39583;54.682;30.662;2023-11-21T12:24:14;99649.78;;;-3.55;60.29
53689;BME280;39583;54.682;30.662;2023-11-21T12:26:43;99648.09;;;-3.56;60.16
53689;BME280;39583;54.682;30.662;2023-11-21T12:29:11;99656.47;;;-3.51;60.34
53689;BME280;39583;54.682;30.662;2023-11-21T12:31:39;99661.75;;;-3.51;60.18
53689;BME280;39583;54.682;30.662;2023-11-21T12:34:08;99641.03;;;-3.56;59.68
53689;BME280;39583;54.682;30.662;2023-11-21T12:36:41;99651.22;;;-3.51;59.38
53689;BME280;39583;54.682;30.662;2023-11-21T12:39:14;99666.50;;;-3.45;59.27
53689;BME280;39583;54.682;30.662;2023-11-21T12:41:47;99648.94;;;-3.56;59.66
53689;BME280;39583;54.682;30.662;2023-11-21T12:44:15;99658.16;;;-3.50;59.48
53689;BME280;39583;54.682;30.662;2023-11-21T12:46:43;99664.13;;;-3.48;59.35
53689;BME280;39583;54.682;30.662;2023-11-21T12:49:12;99664.38;;;-3.51;59.51
53689;BME280;39583;54.682;30.662;2023-11-21T12:51:48;99672.16;;;-3.49;59.33
53689;BME280;39583;54.682;30.662;2023-11-21T12:54:16;99672.75;;;-3.57;59.06
53689;BME280;39583;54.682;30.662;2023-11-21T12:56:45;99668.00;;;-3.63;59.21
53689;BME280;39583;54.682;30.662;2023-11-21T12:59:14;99665.47;;;-3.65;59.11
53689;BME280;39583;54.682;30.662;2023-11-21T13:01:43;99667.06;;;-3.73;59.01
53689;BME280;39583;54.682;30.662;2023-11-21T13:04:11;99670.91;;;-3.77;59.23
53689;BME280;39583;54.682;30.662;2023-11-21T13:06:39;99673.28;;;-3.74;59.23
53689;BME280;39583;54.682;30.662;2023-11-21T13:09:09;99637.22;;;-3.95;59.26
53689;BME280;39583;54.682;30.662;2023-11-21T13:11:43;99672.59;;;-3.76;59.12
53689;BME280;39583;54.682;30.662;2023-11-21T13:14:12;99673.66;;;-3.79;59.22
53689;BME280;39583;54.682;30.662;2023-11-21T13:16:42;99675.31;;;-3.78;59.27